sensor_id;sensor_type;location;lat;lon;timestamp;temperature;humidity
33077;DHT22;38790;51.964;5.924;2022-09-01T00:01:39;16.00;99.90
33077;DHT22;38790;51.964;5.924;2022-09-01T00:04:09;16.00;99.90
33077;DHT22;38790;51.964;5.924;2022-09-01T00:06:36;15.90;99.90
33077;DHT22;38790;51.964;5.924;2022-09-01T00:09:08;15.90;99.90
33077;DHT22;38790;51.964;5.924;2022-09-01T00:11:35;15.90;99.90
33077;DHT22;38790;51.964;5.924;2022-09-01T00:14:05;15.90;99.90
33077;DHT22;38790;51.964;5.924;2022-09-01T00:16:37;15.90;99.90
33077;DHT22;38790;51.964;5.924;2022-09-01T00:19:04;15.90;99.90
33077;DHT22;38790;51.964;5.924;2022-09-01T00:21:53;15.90;99.90
33077;DHT22;38790;51.964;5.924;2022-09-01T00:24:20;15.80;99.90
33077;DHT22;38790;51.964;5.924;2022-09-01T00:26:46;15.70;99.90
33077;DHT22;38790;51.964;5.924;2022-09-01T00:29:13;15.70;99.90
33077;DHT22;38790;51.964;5.924;2022-09-01T00:31:40;15.70;99.90
33077;DHT22;38790;51.964;5.924;2022-09-01T00:34:07;15.70;99.90
33077;DHT22;38790;51.964;5.924;2022-09-01T00:36:33;15.70;99.90
33077;DHT22;38790;51.964;5.924;2022-09-01T00:38:59;15.70;99.90
33077;DHT22;38790;51.964;5.924;2022-09-01T00:41:27;15.70;99.90
33077;DHT22;38790;51.964;5.924;2022-09-01T00:44:04;15.70;99.90
33077;DHT22;38790;51.964;5.924;2022-09-01T00:46:37;15.60;99.90
33077;DHT22;38790;51.964;5.924;2022-09-01T00:49:21;15.70;99.90
33077;DHT22;38790;51.964;5.924;2022-09-01T00:52:03;15.70;99.90
33077;DHT22;38790;51.964;5.924;2022-09-01T00:54:33;15.70;99.90
33077;DHT22;38790;51.964;5.924;2022-09-01T00:57:02;15.60;99.90
33077;DHT22;38790;51.964;5.924;2022-09-01T00:59:29;15.60;99.90
33077;DHT22;38790;51.964;5.924;2022-09-01T01:01:56;15.60;99.90
33077;DHT22;38790;51.964;5.924;2022-09-01T01:04:23;15.50;99.90
33077;DHT22;38790;51.964;5.924;2022-09-01T01:06:55;15.40;99.90
33077;DHT22;38790;51.964;5.924;2022-09-01T01:09:30;15.40;99.90
33077;DHT22;38790;51.964;5.924;2022-09-01T01:11:59;15.40;99.90
33077;DHT22;38790;51.964;5.924;2022-09-01T01:14:27;15.40;99.90
33077;DHT22;38790;51.964;5.924;2022-09-01T01:16:57;15.40;99.90
33077;DHT22;38790;51.964;5.924;2022-09-01T01:19:33;15.50;99.90
33077;DHT22;38790;51.964;5.924;2022-09-01T01:25:14;15.40;99.90
33077;DHT22;38790;51.964;5.924;2022-09-01T01:27:44;15.40;99.90
33077;DHT22;38790;51.964;5.924;2022-09-01T01:30:12;15.40;99.90
33077;DHT22;38790;51.964;5.924;2022-09-01T01:32:39;15.40;99.90
33077;DHT22;38790;51.964;5.924;2022-09-01T01:35:09;15.40;99.90
33077;DHT22;38790;51.964;5.924;2022-09-01T01:37:44;15.50;99.90
33077;DHT22;38790;51.964;5.924;2022-09-01T01:40:12;15.50;99.90
33077;DHT22;38790;51.964;5.924;2022-09-01T01:42:45;15.50;99.90
33077;DHT22;38790;51.964;5.924;2022-09-01T01:45:14;15.60;99.90
33077;DHT22;38790;51.964;5.924;2022-09-01T01:47:43;15.60;99.90
33077;DHT22;38790;51.964;5.924;2022-09-01T01:50:16;15.60;99.90
33077;DHT22;38790;51.964;5.924;2022-09-01T01:52:42;15.70;99.90
33077;DHT22;38790;51.964;5.924;2022-09-01T01:55:09;15.60;99.90
33077;DHT22;38790;51.964;5.924;2022-09-01T01:57:40;15.70;99.90
33077;DHT22;38790;51.964;5.924;2022-09-01T02:00:14;15.70;99.90
33077;DHT22;38790;51.964;5.924;2022-09-01T02:02:46;15.70;99.90
33077;DHT22;38790;51.964;5.924;2022-09-01T02:05:20;15.60;99.90
33077;DHT22;38790;51.964;5.924;2022-09-01T02:07:48;15.60;99.90
33077;DHT22;38790;51.964;5.924;2022-09-01T02:10:15;15.60;99.90
33077;DHT22;38790;51.964;5.924;2022-09-01T02:12:41;15.50;99.90
33077;DHT22;38790;51.964;5.924;2022-09-01T02:15:08;15.50;99.90
33077;DHT22;38790;51.964;5.924;2022-09-01T02:17:37;15.50;99.90
33077;DHT22;38790;51.964;5.924;2022-09-01T02:20:05;15.50;99.90
33077;DHT22;38790;51.964;5.924;2022-09-01T02:22:31;15.40;99.90
33077;DHT22;38790;51.964;5.924;2022-09-01T02:24:57;15.40;99.90
33077;DHT22;38790;51.964;5.924;2022-09-01T02:27:25;15.30;99.90
33077;DHT22;38790;51.964;5.924;2022-09-01T02:29:54;15.30;99.90
33077;DHT22;38790;51.964;5.924;2022-09-01T02:32:20;15.30;99.90
33077;DHT22;38790;51.964;5.924;2022-09-01T02:34:50;15.30;99.90
33077;DHT22;38790;51.964;5.924;2022-09-01T02:37:21;15.30;99.90
33077;DHT22;38790;51.964;5.924;2022-09-01T02:39:53;15.30;99.90
33077;DHT22;38790;51.964;5.924;2022-09-01T02:42:22;15.30;99.90
33077;DHT22;38790;51.964;5.924;2022-09-01T02:44:53;15.20;99.90
33077;DHT22;38790;51.964;5.924;2022-09-01T02:47:20;15.20;99.90
33077;DHT22;38790;51.964;5.924;2022-09-01T02:49:51;15.20;99.90
33077;DHT22;38790;51.964;5.924;2022-09-01T02:52:18;15.20;99.90
33077;DHT22;38790;51.964;5.924;2022-09-01T02:54:47;15.10;99.90
33077;DHT22;38790;51.964;5.924;2022-09-01T02:57:15;15.10;99.90
33077;DHT22;38790;51.964;5.924;2022-09-01T02:59:42;15.10;99.90
33077;DHT22;38790;51.964;5.924;2022-09-01T03:02:08;15.00;99.90
33077;DHT22;38790;51.964;5.924;2022-09-01T03:04:35;15.10;99.90
33077;DHT22;38790;51.964;5.924;2022-09-01T03:07:05;15.10;99.90
33077;DHT22;38790;51.964;5.924;2022-09-01T03:09:31;15.10;99.90
33077;DHT22;38790;51.964;5.924;2022-09-01T03:11:58;15.10;99.90
33077;DHT22;38790;51.964;5.924;2022-09-01T03:14:25;15.10;99.90
33077;DHT22;38790;51.964;5.924;2022-09-01T03:16:51;15.10;99.90
33077;DHT22;38790;51.964;5.924;2022-09-01T03:19:17;15.00;99.90
33077;DHT22;38790;51.964;5.924;2022-09-01T03:21:44;15.00;99.90
33077;DHT22;38790;51.964;5.924;2022-09-01T03:24:13;14.90;99.90
33077;DHT22;38790;51.964;5.924;2022-09-01T03:26:42;14.90;99.90
33077;DHT22;38790;51.964;5.924;2022-09-01T03:29:09;14.90;99.90
33077;DHT22;38790;51.964;5.924;2022-09-01T03:31:36;14.80;99.90
33077;DHT22;38790;51.964;5.924;2022-09-01T03:34:02;14.80;99.90
33077;DHT22;38790;51.964;5.924;2022-09-01T03:36:31;14.80;99.90
33077;DHT22;38790;51.964;5.924;2022-09-01T03:38:58;14.80;99.90
33077;DHT22;38790;51.964;5.924;2022-09-01T03:41:27;14.80;99.90
33077;DHT22;38790;51.964;5.924;2022-09-01T03:43:53;14.70;99.90
33077;DHT22;38790;51.964;5.924;2022-09-01T03:46:21;14.70;99.90
33077;DHT22;38790;51.964;5.924;2022-09-01T03:48:52;14.60;99.90
33077;DHT22;38790;51.964;5.924;2022-09-01T03:51:21;14.60;99.90
33077;DHT22;38790;51.964;5.924;2022-09-01T03:53:51;14.60;99.90
33077;DHT22;38790;51.964;5.924;2022-09-01T03:56:20;14.50;99.90
33077;DHT22;38790;51.964;5.924;2022-09-01T03:58:47;14.50;99.90
33077;DHT22;38790;51.964;5.924;2022-09-01T04:01:14;14.40;99.90
33077;DHT22;38790;51.964;5.924;2022-09-01T04:03:41;14.40;99.90
33077;DHT22;38790;51.964;5.924;2022-09-01T04:06:10;14.40;99.90
33077;DHT22;38790;51.964;5.924;2022-09-01T04:08:37;14.40;99.90
33077;DHT22;38790;51.964;5.924;2022-09-01T04:11:11;14.40;99.90
33077;DHT22;38790;51.964;5.924;2022-09-01T04:13:40;14.40;99.90
33077;DHT22;38790;51.964;5.924;2022-09-01T04:16:14;14.40;99.90
33077;DHT22;38790;51.964;5.924;2022-09-01T04:19:01;14.30;99.90
33077;DHT22;38790;51.964;5.924;2022-09-01T04:21:33;14.40;99.90
33077;DHT22;38790;51.964;5.924;2022-09-01T04:24:00;14.30;99.90
33077;DHT22;38790;51.964;5.924;2022-09-01T04:26:30;14.20;99.90
33077;DHT22;38790;51.964;5.924;2022-09-01T04:28:56;14.30;99.90
33077;DHT22;38790;51.964;5.924;2022-09-01T04:31:23;14.30;99.90
33077;DHT22;38790;51.964;5.924;2022-09-01T04:33:51;14.30;99.90
33077;DHT22;38790;51.964;5.924;2022-09-01T04:38:53;14.30;99.90
33077;DHT22;38790;51.964;5.924;2022-09-01T04:41:22;14.30;99.90
33077;DHT22;38790;51.964;5.924;2022-09-01T04:43:52;14.30;99.90
33077;DHT22;38790;51.964;5.924;2022-09-01T04:46:21;14.30;99.90
33077;DHT22;38790;51.964;5.924;2022-09-01T04:48:51;14.30;99.90
33077;DHT22;38790;51.964;5.924;2022-09-01T04:51:17;14.20;99.90
33077;DHT22;38790;51.964;5.924;2022-09-01T04:53:45;14.20;99.90
33077;DHT22;38790;51.964;5.924;2022-09-01T04:56:15;14.20;99.90
33077;DHT22;38790;51.964;5.924;2022-09-01T04:58:48;14.20;99.90
33077;DHT22;38790;51.964;5.924;2022-09-01T05:01:17;14.10;99.90
33077;DHT22;38790;51.964;5.924;2022-09-01T05:03:43;14.10;99.90
33077;DHT22;38790;51.964;5.924;2022-09-01T05:06:18;14.10;99.90
33077;DHT22;38790;51.964;5.924;2022-09-01T05:08:45;14.10;99.90
33077;DHT22;38790;51.964;5.924;2022-09-01T05:11:12;14.20;99.90
33077;DHT22;38790;51.964;5.924;2022-09-01T05:13:46;14.20;99.90
33077;DHT22;38790;51.964;5.924;2022-09-01T05:16:18;14.10;99.90
33077;DHT22;38790;51.964;5.924;2022-09-01T05:18:48;14.10;99.90
33077;DHT22;38790;51.964;5.924;2022-09-01T05:21:17;14.10;99.90
33077;DHT22;38790;51.964;5.924;2022-09-01T05:23:45;14.10;99.90
33077;DHT22;38790;51.964;5.924;2022-09-01T05:26:18;14.10;99.90
33077;DHT22;38790;51.964;5.924;2022-09-01T05:28:48;14.00;99.90
33077;DHT22;38790;51.964;5.924;2022-09-01T05:31:14;14.00;99.90
33077;DHT22;38790;51.964;5.924;2022-09-01T05:33:46;14.00;99.90
33077;DHT22;38790;51.964;5.924;2022-09-01T05:36:18;14.10;99.90
33077;DHT22;38790;51.964;5.924;2022-09-01T05:38:46;14.10;99.90
33077;DHT22;38790;51.964;5.924;2022-09-01T05:41:14;14.00;99.90
33077;DHT22;38790;51.964;5.924;2022-09-01T05:43:43;14.00;99.90
33077;DHT22;38790;51.964;5.924;2022-09-01T05:46:14;14.10;99.90
33077;DHT22;38790;51.964;5.924;2022-09-01T05:48:45;14.10;99.90
33077;DHT22;38790;51.964;5.924;2022-09-01T05:51:16;14.10;99.90
33077;DHT22;38790;51.964;5.924;2022-09-01T05:53:45;14.10;99.90
33077;DHT22;38790;51.964;5.924;2022-09-01T05:56:12;14.10;99.90
33077;DHT22;38790;51.964;5.924;2022-09-01T05:58:40;14.20;99.90
33077;DHT22;38790;51.964;5.924;2022-09-01T06:01:09;14.30;99.90
33077;DHT22;38790;51.964;5.924;2022-09-01T06:03:38;14.20;99.90
33077;DHT22;38790;51.964;5.924;2022-09-01T06:06:05;14.30;99.90
33077;DHT22;38790;51.964;5.924;2022-09-01T06:08:34;14.40;99.90
33077;DHT22;38790;51.964;5.924;2022-09-01T06:11:01;14.50;99.90
33077;DHT22;38790;51.964;5.924;2022-09-01T06:13:29;14.50;99.90
33077;DHT22;38790;51.964;5.924;2022-09-01T06:15:55;14.50;99.90
33077;DHT22;38790;51.964;5.924;2022-09-01T06:18:23;14.50;99.90
33077;DHT22;38790;51.964;5.924;2022-09-01T06:20:49;14.60;99.90
33077;DHT22;38790;51.964;5.924;2022-09-01T06:23:16;14.60;99.90
33077;DHT22;38790;51.964;5.924;2022-09-01T06:25:46;14.60;99.90
33077;DHT22;38790;51.964;5.924;2022-09-01T06:28:16;14.60;99.90
33077;DHT22;38790;51.964;5.924;2022-09-01T06:30:43;14.70;99.90
33077;DHT22;38790;51.964;5.924;2022-09-01T06:33:11;14.70;99.90
33077;DHT22;38790;51.964;5.924;2022-09-01T06:35:40;14.80;99.90
33077;DHT22;38790;51.964;5.924;2022-09-01T06:38:09;14.90;99.90
33077;DHT22;38790;51.964;5.924;2022-09-01T06:40:35;15.00;99.90
33077;DHT22;38790;51.964;5.924;2022-09-01T06:43:06;15.10;99.90
33077;DHT22;38790;51.964;5.924;2022-09-01T06:45:38;15.30;99.90
33077;DHT22;38790;51.964;5.924;2022-09-01T06:48:05;15.90;99.90
33077;DHT22;38790;51.964;5.924;2022-09-01T06:50:31;16.30;99.90
33077;DHT22;38790;51.964;5.924;2022-09-01T06:52:57;16.50;99.90
33077;DHT22;38790;51.964;5.924;2022-09-01T06:55:37;16.40;99.90
33077;DHT22;38790;51.964;5.924;2022-09-01T06:58:07;16.30;99.90
33077;DHT22;38790;51.964;5.924;2022-09-01T07:00:38;16.30;99.90
33077;DHT22;38790;51.964;5.924;2022-09-01T07:03:08;16.60;99.90
33077;DHT22;38790;51.964;5.924;2022-09-01T07:05:40;17.20;99.90
33077;DHT22;38790;51.964;5.924;2022-09-01T07:08:09;17.90;99.90
33077;DHT22;38790;51.964;5.924;2022-09-01T07:10:43;18.50;99.90
33077;DHT22;38790;51.964;5.924;2022-09-01T07:13:18;18.60;99.90
33077;DHT22;38790;51.964;5.924;2022-09-01T07:15:49;18.70;99.90
33077;DHT22;38790;51.964;5.924;2022-09-01T07:18:17;18.80;99.90
33077;DHT22;38790;51.964;5.924;2022-09-01T07:20:43;19.00;99.90
33077;DHT22;38790;51.964;5.924;2022-09-01T07:23:09;19.20;99.90
33077;DHT22;38790;51.964;5.924;2022-09-01T07:25:38;19.30;99.90
33077;DHT22;38790;51.964;5.924;2022-09-01T07:28:06;19.50;99.90
33077;DHT22;38790;51.964;5.924;2022-09-01T07:30:32;19.30;99.90
33077;DHT22;38790;51.964;5.924;2022-09-01T07:33:00;19.10;99.90
33077;DHT22;38790;51.964;5.924;2022-09-01T07:35:26;19.10;99.90
33077;DHT22;38790;51.964;5.924;2022-09-01T07:37:52;19.40;99.90
33077;DHT22;38790;51.964;5.924;2022-09-01T07:40:20;19.60;99.90
33077;DHT22;38790;51.964;5.924;2022-09-01T07:42:52;19.50;99.90
33077;DHT22;38790;51.964;5.924;2022-09-01T07:45:19;19.60;99.90
33077;DHT22;38790;51.964;5.924;2022-09-01T07:47:45;19.90;99.90
33077;DHT22;38790;51.964;5.924;2022-09-01T07:50:12;20.20;99.90
33077;DHT22;38790;51.964;5.924;2022-09-01T07:52:41;20.70;99.90
33077;DHT22;38790;51.964;5.924;2022-09-01T07:55:12;20.80;99.90
33077;DHT22;38790;51.964;5.924;2022-09-01T07:57:43;20.90;99.90
33077;DHT22;38790;51.964;5.924;2022-09-01T08:00:12;21.00;99.90
33077;DHT22;38790;51.964;5.924;2022-09-01T08:02:40;21.00;99.90
33077;DHT22;38790;51.964;5.924;2022-09-01T08:05:14;21.00;99.90
33077;DHT22;38790;51.964;5.924;2022-09-01T08:07:43;21.00;99.90
33077;DHT22;38790;51.964;5.924;2022-09-01T08:10:12;21.00;99.90
33077;DHT22;38790;51.964;5.924;2022-09-01T08:12:38;21.00;99.90
33077;DHT22;38790;51.964;5.924;2022-09-01T08:15:05;21.20;99.90
33077;DHT22;38790;51.964;5.924;2022-09-01T08:17:32;21.30;99.90
33077;DHT22;38790;51.964;5.924;2022-09-01T08:19:58;21.40;99.90
33077;DHT22;38790;51.964;5.924;2022-09-01T08:22:24;21.40;99.90
33077;DHT22;38790;51.964;5.924;2022-09-01T08:24:52;21.40;99.90
33077;DHT22;38790;51.964;5.924;2022-09-01T08:27:18;21.60;99.90
33077;DHT22;38790;51.964;5.924;2022-09-01T08:29:45;21.70;99.90
33077;DHT22;38790;51.964;5.924;2022-09-01T08:32:11;21.80;99.90
33077;DHT22;38790;51.964;5.924;2022-09-01T08:34:37;21.80;99.90
33077;DHT22;38790;51.964;5.924;2022-09-01T08:37:04;22.00;99.90
33077;DHT22;38790;51.964;5.924;2022-09-01T08:39:31;22.20;99.90
33077;DHT22;38790;51.964;5.924;2022-09-01T08:47:46;22.70;99.90
33077;DHT22;38790;51.964;5.924;2022-09-01T08:50:13;22.80;99.90
33077;DHT22;38790;51.964;5.924;2022-09-01T08:52:49;22.90;99.90
33077;DHT22;38790;51.964;5.924;2022-09-01T08:55:41;23.10;99.90
33077;DHT22;38790;51.964;5.924;2022-09-01T08:58:09;23.10;99.90
33077;DHT22;38790;51.964;5.924;2022-09-01T09:00:44;23.10;99.90
33077;DHT22;38790;51.964;5.924;2022-09-01T09:14:03;23.50;99.90
33077;DHT22;38790;51.964;5.924;2022-09-01T09:16:40;23.50;99.90
33077;DHT22;38790;51.964;5.924;2022-09-01T09:19:32;23.70;99.80
33077;DHT22;38790;51.964;5.924;2022-09-01T09:22:03;23.90;98.80
33077;DHT22;38790;51.964;5.924;2022-09-01T09:27:35;24.00;99.20
33077;DHT22;38790;51.964;5.924;2022-09-01T09:32:59;24.20;99.10
33077;DHT22;38790;51.964;5.924;2022-09-01T09:35:38;24.10;98.50
33077;DHT22;38790;51.964;5.924;2022-09-01T09:43:28;24.00;97.40
33077;DHT22;38790;51.964;5.924;2022-09-01T09:46:19;23.90;97.80
33077;DHT22;38790;51.964;5.924;2022-09-01T09:48:46;24.00;97.40
33077;DHT22;38790;51.964;5.924;2022-09-01T09:51:16;24.20;96.80
33077;DHT22;38790;51.964;5.924;2022-09-01T09:53:42;24.40;96.70
33077;DHT22;38790;51.964;5.924;2022-09-01T09:56:18;24.60;96.70
33077;DHT22;38790;51.964;5.924;2022-09-01T09:58:46;24.70;95.70
33077;DHT22;38790;51.964;5.924;2022-09-01T10:03:54;24.80;95.10
33077;DHT22;38790;51.964;5.924;2022-09-01T10:06:56;24.70;94.60
33077;DHT22;38790;51.964;5.924;2022-09-01T10:11:51;24.70;94.90
33077;DHT22;38790;51.964;5.924;2022-09-01T10:14:22;24.80;95.00
33077;DHT22;38790;51.964;5.924;2022-09-01T10:16:53;25.00;94.40
33077;DHT22;38790;51.964;5.924;2022-09-01T10:19:22;25.00;94.50
33077;DHT22;38790;51.964;5.924;2022-09-01T10:21:50;24.90;94.90
33077;DHT22;38790;51.964;5.924;2022-09-01T10:24:28;24.90;94.50
33077;DHT22;38790;51.964;5.924;2022-09-01T10:27:02;24.90;93.40
33077;DHT22;38790;51.964;5.924;2022-09-01T10:29:33;24.80;93.70
33077;DHT22;38790;51.964;5.924;2022-09-01T10:32:07;24.50;94.20
33077;DHT22;38790;51.964;5.924;2022-09-01T10:34:36;24.40;94.70
33077;DHT22;38790;51.964;5.924;2022-09-01T10:37:05;24.40;95.20
33077;DHT22;38790;51.964;5.924;2022-09-01T10:39:32;24.60;94.70
33077;DHT22;38790;51.964;5.924;2022-09-01T10:41:59;24.40;94.80
33077;DHT22;38790;51.964;5.924;2022-09-01T10:44:37;24.40;95.50
33077;DHT22;38790;51.964;5.924;2022-09-01T10:47:33;24.90;95.20
33077;DHT22;38790;51.964;5.924;2022-09-01T10:50:27;25.10;94.10
33077;DHT22;38790;51.964;5.924;2022-09-01T10:52:53;25.40;94.30
33077;DHT22;38790;51.964;5.924;2022-09-01T10:58:20;25.30;94.90
33077;DHT22;38790;51.964;5.924;2022-09-01T11:00:51;25.10;93.60
33077;DHT22;38790;51.964;5.924;2022-09-01T11:08:39;24.80;93.00
33077;DHT22;38790;51.964;5.924;2022-09-01T11:13:57;25.00;93.40
33077;DHT22;38790;51.964;5.924;2022-09-01T11:16:40;25.10;93.40
33077;DHT22;38790;51.964;5.924;2022-09-01T11:19:27;25.10;94.10
33077;DHT22;38790;51.964;5.924;2022-09-01T11:22:24;25.20;95.20
33077;DHT22;38790;51.964;5.924;2022-09-01T11:25:20;25.20;94.10
33077;DHT22;38790;51.964;5.924;2022-09-01T11:27:59;25.30;94.30
33077;DHT22;38790;51.964;5.924;2022-09-01T11:31:22;25.30;95.10
33077;DHT22;38790;51.964;5.924;2022-09-01T11:39:08;25.40;93.80
33077;DHT22;38790;51.964;5.924;2022-09-01T11:42:00;25.30;93.60
33077;DHT22;38790;51.964;5.924;2022-09-01T11:44:39;25.10;93.00
33077;DHT22;38790;51.964;5.924;2022-09-01T11:47:11;25.10;93.90
33077;DHT22;38790;51.964;5.924;2022-09-01T11:49:54;25.20;94.10
33077;DHT22;38790;51.964;5.924;2022-09-01T11:52:25;25.10;94.20
33077;DHT22;38790;51.964;5.924;2022-09-01T11:54:51;25.10;94.50
33077;DHT22;38790;51.964;5.924;2022-09-01T11:57:34;25.20;94.00
33077;DHT22;38790;51.964;5.924;2022-09-01T12:00:07;25.20;93.90
33077;DHT22;38790;51.964;5.924;2022-09-01T12:02:35;25.00;94.00
33077;DHT22;38790;51.964;5.924;2022-09-01T12:05:29;24.90;93.60
33077;DHT22;38790;51.964;5.924;2022-09-01T12:07:56;24.70;95.20
33077;DHT22;38790;51.964;5.924;2022-09-01T12:13:28;24.80;93.70
33077;DHT22;38790;51.964;5.924;2022-09-01T12:15:57;25.00;93.50
33077;DHT22;38790;51.964;5.924;2022-09-01T12:18:32;25.00;93.40
33077;DHT22;38790;51.964;5.924;2022-09-01T12:21:04;25.00;93.80
33077;DHT22;38790;51.964;5.924;2022-09-01T12:23:39;25.00;95.20
33077;DHT22;38790;51.964;5.924;2022-09-01T12:26:12;25.00;94.20
33077;DHT22;38790;51.964;5.924;2022-09-01T12:28:40;25.10;93.70
33077;DHT22;38790;51.964;5.924;2022-09-01T12:31:16;25.20;93.50
33077;DHT22;38790;51.964;5.924;2022-09-01T12:33:43;25.00;92.70
33077;DHT22;38790;51.964;5.924;2022-09-01T12:38:52;25.20;93.30
33077;DHT22;38790;51.964;5.924;2022-09-01T12:41:36;25.30;95.50
33077;DHT22;38790;51.964;5.924;2022-09-01T12:46:47;25.10;92.90
33077;DHT22;38790;51.964;5.924;2022-09-01T12:49:23;25.00;93.40
33077;DHT22;38790;51.964;5.924;2022-09-01T12:52:26;24.90;94.10
33077;DHT22;38790;51.964;5.924;2022-09-01T12:55:13;25.00;93.70
33077;DHT22;38790;51.964;5.924;2022-09-01T12:57:45;24.90;92.80
33077;DHT22;38790;51.964;5.924;2022-09-01T13:00:17;25.00;93.40
33077;DHT22;38790;51.964;5.924;2022-09-01T13:02:48;25.10;93.60
33077;DHT22;38790;51.964;5.924;2022-09-01T13:07:45;25.10;92.50
33077;DHT22;38790;51.964;5.924;2022-09-01T13:10:11;25.00;94.40
33077;DHT22;38790;51.964;5.924;2022-09-01T13:12:42;25.00;93.60
33077;DHT22;38790;51.964;5.924;2022-09-01T13:15:09;25.10;92.80
33077;DHT22;38790;51.964;5.924;2022-09-01T13:17:35;25.10;93.00
33077;DHT22;38790;51.964;5.924;2022-09-01T13:20:06;25.20;93.40
33077;DHT22;38790;51.964;5.924;2022-09-01T13:22:33;25.40;95.60
33077;DHT22;38790;51.964;5.924;2022-09-01T13:25:00;25.40;92.90
33077;DHT22;38790;51.964;5.924;2022-09-01T13:27:27;25.40;92.00
33077;DHT22;38790;51.964;5.924;2022-09-01T13:29:53;25.20;93.80
33077;DHT22;38790;51.964;5.924;2022-09-01T13:32:20;25.30;92.40
33077;DHT22;38790;51.964;5.924;2022-09-01T13:34:48;25.20;94.10
33077;DHT22;38790;51.964;5.924;2022-09-01T13:37:15;25.10;92.90
33077;DHT22;38790;51.964;5.924;2022-09-01T13:39:41;25.10;93.50
33077;DHT22;38790;51.964;5.924;2022-09-01T13:42:07;25.20;92.00
33077;DHT22;38790;51.964;5.924;2022-09-01T13:44:33;25.20;92.30
33077;DHT22;38790;51.964;5.924;2022-09-01T13:46:59;25.10;92.90
33077;DHT22;38790;51.964;5.924;2022-09-01T13:49:25;25.00;92.60
33077;DHT22;38790;51.964;5.924;2022-09-01T13:51:52;25.10;93.50
33077;DHT22;38790;51.964;5.924;2022-09-01T13:54:19;25.20;92.80
33077;DHT22;38790;51.964;5.924;2022-09-01T13:56:46;25.10;92.90
33077;DHT22;38790;51.964;5.924;2022-09-01T13:59:12;25.00;94.60
33077;DHT22;38790;51.964;5.924;2022-09-01T14:01:38;25.10;93.50
33077;DHT22;38790;51.964;5.924;2022-09-01T14:04:06;25.20;95.40
33077;DHT22;38790;51.964;5.924;2022-09-01T14:06:39;25.30;92.80
33077;DHT22;38790;51.964;5.924;2022-09-01T14:09:05;25.30;92.40
33077;DHT22;38790;51.964;5.924;2022-09-01T14:11:31;25.20;92.30
33077;DHT22;38790;51.964;5.924;2022-09-01T14:13:57;25.20;92.60
33077;DHT22;38790;51.964;5.924;2022-09-01T14:16:23;25.10;93.00
33077;DHT22;38790;51.964;5.924;2022-09-01T14:18:49;25.00;93.50
33077;DHT22;38790;51.964;5.924;2022-09-01T14:21:15;25.00;92.60
33077;DHT22;38790;51.964;5.924;2022-09-01T14:23:42;24.90;93.30
33077;DHT22;38790;51.964;5.924;2022-09-01T14:26:10;25.00;93.20
33077;DHT22;38790;51.964;5.924;2022-09-01T14:28:37;25.10;93.80
33077;DHT22;38790;51.964;5.924;2022-09-01T14:31:11;25.10;94.70
33077;DHT22;38790;51.964;5.924;2022-09-01T14:33:38;25.20;92.70
33077;DHT22;38790;51.964;5.924;2022-09-01T14:36:06;25.20;93.20
33077;DHT22;38790;51.964;5.924;2022-09-01T14:38:33;25.30;93.30
33077;DHT22;38790;51.964;5.924;2022-09-01T14:41:00;25.40;92.90
33077;DHT22;38790;51.964;5.924;2022-09-01T14:43:27;25.40;94.40
33077;DHT22;38790;51.964;5.924;2022-09-01T14:46:06;25.40;92.90
33077;DHT22;38790;51.964;5.924;2022-09-01T14:48:34;25.40;95.20
33077;DHT22;38790;51.964;5.924;2022-09-01T14:51:00;25.30;93.00
33077;DHT22;38790;51.964;5.924;2022-09-01T14:53:28;25.20;93.20
33077;DHT22;38790;51.964;5.924;2022-09-01T14:55:56;25.20;93.70
33077;DHT22;38790;51.964;5.924;2022-09-01T14:58:23;25.20;93.00
33077;DHT22;38790;51.964;5.924;2022-09-01T15:00:50;25.20;93.70
33077;DHT22;38790;51.964;5.924;2022-09-01T15:03:16;25.20;94.40
33077;DHT22;38790;51.964;5.924;2022-09-01T15:05:42;25.20;94.60
33077;DHT22;38790;51.964;5.924;2022-09-01T15:08:09;25.20;96.00
33077;DHT22;38790;51.964;5.924;2022-09-01T15:10:35;25.40;94.60
33077;DHT22;38790;51.964;5.924;2022-09-01T15:13:02;25.30;92.70
33077;DHT22;38790;51.964;5.924;2022-09-01T15:15:28;25.20;93.50
33077;DHT22;38790;51.964;5.924;2022-09-01T15:17:55;25.30;93.80
33077;DHT22;38790;51.964;5.924;2022-09-01T15:20:22;25.30;93.40
33077;DHT22;38790;51.964;5.924;2022-09-01T15:23:06;25.20;94.50
33077;DHT22;38790;51.964;5.924;2022-09-01T15:25:33;25.20;94.00
33077;DHT22;38790;51.964;5.924;2022-09-01T15:27:59;25.10;93.40
33077;DHT22;38790;51.964;5.924;2022-09-01T15:30:26;25.10;94.20
33077;DHT22;38790;51.964;5.924;2022-09-01T15:32:53;25.10;94.20
33077;DHT22;38790;51.964;5.924;2022-09-01T15:35:19;25.00;94.90
33077;DHT22;38790;51.964;5.924;2022-09-01T15:37:47;25.00;94.80
33077;DHT22;38790;51.964;5.924;2022-09-01T15:40:14;24.90;94.40
33077;DHT22;38790;51.964;5.924;2022-09-01T15:42:40;24.90;94.90
33077;DHT22;38790;51.964;5.924;2022-09-01T15:45:10;24.90;94.20
33077;DHT22;38790;51.964;5.924;2022-09-01T15:47:36;24.80;94.60
33077;DHT22;38790;51.964;5.924;2022-09-01T15:50:05;24.80;94.90
33077;DHT22;38790;51.964;5.924;2022-09-01T15:52:31;24.80;93.50
33077;DHT22;38790;51.964;5.924;2022-09-01T15:54:59;24.70;93.30
33077;DHT22;38790;51.964;5.924;2022-09-01T15:57:25;24.70;94.10
33077;DHT22;38790;51.964;5.924;2022-09-01T15:59:52;24.70;93.70
33077;DHT22;38790;51.964;5.924;2022-09-01T16:02:18;24.60;94.10
33077;DHT22;38790;51.964;5.924;2022-09-01T16:04:52;24.60;94.70
33077;DHT22;38790;51.964;5.924;2022-09-01T16:07:18;24.60;94.10
33077;DHT22;38790;51.964;5.924;2022-09-01T16:09:44;24.60;94.50
33077;DHT22;38790;51.964;5.924;2022-09-01T16:12:10;24.60;95.00
33077;DHT22;38790;51.964;5.924;2022-09-01T16:14:36;24.60;95.10
33077;DHT22;38790;51.964;5.924;2022-09-01T16:17:04;24.60;94.70
33077;DHT22;38790;51.964;5.924;2022-09-01T16:22:33;24.50;94.50
33077;DHT22;38790;51.964;5.924;2022-09-01T16:25:10;24.40;94.20
33077;DHT22;38790;51.964;5.924;2022-09-01T16:27:41;24.40;94.20
33077;DHT22;38790;51.964;5.924;2022-09-01T16:30:13;24.40;94.70
33077;DHT22;38790;51.964;5.924;2022-09-01T16:32:44;24.40;94.20
33077;DHT22;38790;51.964;5.924;2022-09-01T16:35:11;24.30;94.20
33077;DHT22;38790;51.964;5.924;2022-09-01T16:37:50;24.20;94.80
33077;DHT22;38790;51.964;5.924;2022-09-01T16:40:30;24.20;94.90
33077;DHT22;38790;51.964;5.924;2022-09-01T16:43:19;24.20;94.00
33077;DHT22;38790;51.964;5.924;2022-09-01T16:48:51;24.10;94.50
33077;DHT22;38790;51.964;5.924;2022-09-01T16:51:32;24.00;94.60
33077;DHT22;38790;51.964;5.924;2022-09-01T16:54:26;24.10;95.50
33077;DHT22;38790;51.964;5.924;2022-09-01T17:00:11;23.90;94.60
33077;DHT22;38790;51.964;5.924;2022-09-01T17:05:35;23.90;94.40
33077;DHT22;38790;51.964;5.924;2022-09-01T17:08:30;23.90;94.90